Time;durP1;ratioP1;P1;durP2;ratioP2;P2;SDS_P1;SDS_P2;PMS_P1;PMS_P2;Temp;Humidity;BMP_temperature;BMP_pressure;BME280_temperature;BME280_humidity;BME280_pressure;Samples;Min_cycle;Max_cycle;Signal;HPM_P1;HPM_P2
2023/04/25 00:00:23;;;;;;;59.33;4.30;;;;;;;;;;5074714;28;20521;-69
2023/04/25 00:02:50;;;;;;;58.30;3.53;;;;;;;;;;5075373;28;20439;-69
2023/04/25 00:05:17;;;;;;;58.50;3.80;;;;;;;;;;5075075;28;20633;-69
2023/04/25 00:07:45;;;;;;;59.77;4.13;;;;;;;;;;5075140;28;20533;-69
2023/04/25 00:10:13;;;;;;;59.47;3.90;;;;;;;;;;5074588;28;20621;-69
2023/04/25 00:12:40;;;;;;;60.10;3.90;;;;;;;;;;5074771;28;20996;-69
2023/04/25 00:15:07;;;;;;;59.67;3.50;;;;;;;;;;5074839;28;20505;-69
2023/04/25 00:17:38;;;;;;;58.20;3.80;;;;;;;;;;5075196;28;20443;-69
2023/04/25 00:20:07;;;;;;;59.57;3.70;;;;;;;;;;5074576;28;20835;-69
2023/04/25 00:22:36;;;;;;;60.20;3.80;;;;;;;;;;5074801;28;20451;-69
2023/04/25 00:25:04;;;;;;;59.57;4.13;;;;;;;;;;5074620;28;20935;-69
2023/04/25 00:27:31;;;;;;;59.23;4.00;;;;;;;;;;5074536;28;20446;-69
2023/04/25 00:29:58;;;;;;;58.37;3.77;;;;;;;;;;5074310;28;20972;-69
2023/04/25 00:32:25;;;;;;;59.07;3.90;;;;;;;;;;5074624;28;20455;-69
2023/04/25 00:34:55;;;;;;;58.87;3.83;;;;;;;;;;5074492;28;20458;-69
2023/04/25 00:37:22;;;;;;;59.33;3.73;;;;;;;;;;5074485;28;20451;-69
2023/04/25 00:39:49;;;;;;;58.40;3.80;;;;;;;;;;5074038;28;20473;-69
2023/04/25 00:42:17;;;;;;;59.30;3.80;;;;;;;;;;5074454;28;20447;-69
2023/04/25 00:44:45;;;;;;;58.60;3.67;;;;;;;;;;5074567;28;20837;-69
2023/04/25 00:47:12;;;;;;;59.80;3.97;;;;;;;;;;5074415;28;20451;-69
2023/04/25 00:49:39;;;;;;;58.30;3.50;;;;;;;;;;5073940;28;20467;-69
2023/04/25 00:52:08;;;;;;;59.10;3.80;;;;;;;;;;5074232;28;20447;-69
2023/04/25 00:54:35;;;;;;;60.27;4.03;;;;;;;;;;5074015;28;21011;-69
2023/04/25 00:57:02;;;;;;;58.60;4.13;;;;;;;;;;5073945;28;20443;-69
2023/04/25 00:59:30;;;;;;;57.97;3.70;;;;;;;;;;5073784;28;20471;-69
2023/04/25 01:01:57;;;;;;;59.10;4.50;;;;;;;;;;5074117;28;20497;-69
2023/04/25 01:04:25;;;;;;;59.30;3.77;;;;;;;;;;5074053;28;20447;-69
2023/04/25 01:06:53;;;;;;;58.57;3.90;;;;;;;;;;5073870;28;20447;-68
2023/04/25 01:09:21;;;;;;;58.87;4.50;;;;;;;;;;5073698;28;20473;-69
2023/04/25 01:11:49;;;;;;;58.27;3.50;;;;;;;;;;5073796;28;20451;-69
2023/04/25 01:14:16;;;;;;;58.60;3.87;;;;;;;;;;5073862;28;20489;-69
2023/04/25 01:16:44;;;;;;;59.07;3.93;;;;;;;;;;5073721;28;20457;-69
2023/04/25 01:19:12;;;;;;;59.07;4.33;;;;;;;;;;5071793;28;20835;-69
2023/04/25 01:21:40;;;;;;;58.70;4.03;;;;;;;;;;5073671;28;20451;-69
2023/04/25 01:24:08;;;;;;;57.97;3.80;;;;;;;;;;5073596;28;21064;-69
2023/04/25 01:26:35;;;;;;;58.70;3.73;;;;;;;;;;5073477;28;20447;-69
2023/04/25 01:29:02;;;;;;;59.43;4.07;;;;;;;;;;5073271;28;20469;-69
2023/04/25 01:31:29;;;;;;;59.30;4.47;;;;;;;;;;5073581;28;20455;-69
2023/04/25 01:33:57;;;;;;;59.70;3.90;;;;;;;;;;5073428;28;20479;-69
2023/04/25 01:36:24;;;;;;;58.77;3.80;;;;;;;;;;5073409;28;20844;-69
2023/04/25 01:38:52;;;;;;;58.60;4.20;;;;;;;;;;5072809;28;20467;-68
2023/04/25 01:41:19;;;;;;;58.70;4.37;;;;;;;;;;5073450;28;20451;-69
2023/04/25 01:43:47;;;;;;;58.10;3.37;;;;;;;;;;5073209;28;20448;-69
2023/04/25 01:46:14;;;;;;;58.60;4.07;;;;;;;;;;5073369;28;20906;-69
2023/04/25 01:48:41;;;;;;;59.50;3.83;;;;;;;;;;5073354;28;20447;-69
2023/04/25 01:51:08;;;;;;;58.30;4.10;;;;;;;;;;5073000;28;20448;-70
2023/04/25 01:53:35;;;;;;;58.37;3.90;;;;;;;;;;5073101;28;20483;-69
2023/04/25 01:56:04;;;;;;;58.30;3.77;;;;;;;;;;5073068;28;20451;-69
2023/04/25 01:58:31;;;;;;;60.90;4.80;;;;;;;;;;5072707;28;20459;-69
2023/04/25 02:00:58;;;;;;;58.77;4.20;;;;;;;;;;5072892;28;20827;-69
2023/04/25 02:03:25;;;;;;;62.57;4.13;;;;;;;;;;5072705;28;20444;-70
2023/04/25 02:05:52;;;;;;;59.33;4.50;;;;;;;;;;5072944;28;20457;-70
2023/04/25 02:08:19;;;;;;;60.37;3.80;;;;;;;;;;5072060;28;20451;-69
2023/04/25 02:10:46;;;;;;;58.87;3.50;;;;;;;;;;5072490;28;20497;-70
2023/04/25 02:13:15;;;;;;;59.00;3.50;;;;;;;;;;5072518;28;20451;-70
2023/04/25 02:15:42;;;;;;;60.03;4.27;;;;;;;;;;5072669;28;20454;-70
2023/04/25 02:18:10;;;;;;;58.27;3.80;;;;;;;;;;5072401;28;20455;-70
2023/04/25 02:20:37;;;;;;;59.23;4.10;;;;;;;;;;5072588;28;20463;-70
2023/04/25 02:23:05;;;;;;;59.30;4.70;;;;;;;;;;5072319;28;20954;-70
2023/04/25 02:25:32;;;;;;;59.13;4.10;;;;;;;;;;5072515;28;20451;-70
2023/04/25 02:27:59;;;;;;;58.30;3.87;;;;;;;;;;5072397;28;20444;-70
2023/04/25 02:30:27;;;;;;;60.20;4.27;;;;;;;;;;5071995;28;20843;-70
2023/04/25 02:32:55;;;;;;;59.10;4.23;;;;;;;;;;5072212;28;20454;-70
2023/04/25 02:35:22;;;;;;;61.77;4.90;;;;;;;;;;5072347;28;20577;-70
2023/04/25 02:37:49;;;;;;;59.47;3.70;;;;;;;;;;5072335;28;20443;-70
2023/04/25 02:40:16;;;;;;;60.47;5.10;;;;;;;;;;5071861;28;20507;-70
2023/04/25 02:42:45;;;;;;;61.97;3.50;;;;;;;;;;5072184;28;20445;-70
2023/04/25 02:45:12;;;;;;;60.10;4.47;;;;;;;;;;5072214;28;20816;-69
2023/04/25 02:47:41;;;;;;;63.23;4.30;;;;;;;;;;5072251;28;20522;-70
2023/04/25 02:50:08;;;;;;;60.03;4.50;;;;;;;;;;5071849;28;20471;-70
2023/04/25 02:52:35;;;;;;;62.23;4.43;;;;;;;;;;5071959;28;20451;-70
2023/04/25 02:55:03;;;;;;;59.30;4.67;;;;;;;;;;5072016;28;20483;-70
2023/04/25 02:57:30;;;;;;;60.97;4.47;;;;;;;;;;5071976;28;20455;-70
2023/04/25 02:59:57;;;;;;;58.63;4.30;;;;;;;;;;5071705;28;20839;-69
2023/04/25 03:02:24;;;;;;;60.87;4.20;;;;;;;;;;5072102;28;20455;-70
2023/04/25 03:04:53;;;;;;;59.90;4.80;;;;;;;;;;5071889;28;20448;-70
2023/04/25 03:07:20;;;;;;;59.67;4.07;;;;;;;;;;5071976;28;20971;-69
2023/04/25 03:09:47;;;;;;;60.07;4.83;;;;;;;;;;5071538;28;20470;-70
2023/04/25 03:12:14;;;;;;;58.80;4.30;;;;;;;;;;5071659;28;20462;-69
2023/04/25 03:14:42;;;;;;;59.80;4.33;;;;;;;;;;5071934;28;20497;-70
2023/04/25 03:17:09;;;;;;;60.53;4.73;;;;;;;;;;5071888;28;20446;-69
2023/04/25 03:19:36;;;;;;;59.27;4.30;;;;;;;;;;5071289;28;20471;-70
2023/04/25 03:22:04;;;;;;;58.40;4.07;;;;;;;;;;5071460;28;20451;-69
2023/04/25 03:24:31;;;;;;;59.87;4.60;;;;;;;;;;5071563;28;20549;-69
2023/04/25 03:26:58;;;;;;;59.40;4.70;;;;;;;;;;5071531;28;20447;-70
2023/04/25 03:29:27;;;;;;;58.80;4.50;;;;;;;;;;5071412;28;20473;-70
2023/04/25 03:31:54;;;;;;;59.80;4.97;;;;;;;;;;5071766;28;20458;-70
2023/04/25 03:34:21;;;;;;;58.33;4.37;;;;;;;;;;5071499;28;20482;-70
2023/04/25 03:36:48;;;;;;;63.67;5.10;;;;;;;;;;5071623;28;20447;-70
2023/04/25 03:39:17;;;;;;;62.80;4.73;;;;;;;;;;5071067;28;20472;-70
2023/04/25 03:41:44;;;;;;;59.70;5.10;;;;;;;;;;5071695;28;20443;-69
2023/04/25 03:44:11;;;;;;;62.97;5.33;;;;;;;;;;5071586;28;21047;-70
2023/04/25 03:46:38;;;;;;;60.00;5.27;;;;;;;;;;5071709;28;20447;-69
2023/04/25 03:49:06;;;;;;;59.57;4.80;;;;;;;;;;5071115;28;20545;-69
2023/04/25 03:51:33;;;;;;;60.40;5.50;;;;;;;;;;5071594;28;20452;-69
2023/04/25 03:54:00;;;;;;;60.60;5.30;;;;;;;;;;5071344;28;20475;-70
2023/04/25 03:56:29;;;;;;;60.10;5.20;;;;;;;;;;5071590;28;20978;-70
2023/04/25 03:58:56;;;;;;;59.27;4.70;;;;;;;;;;5071085;28;20469;-69
2023/04/25 04:01:23;;;;;;;59.57;5.00;;;;;;;;;;5071424;28;20830;-70
2023/04/25 04:03:50;;;;;;;60.30;5.00;;;;;;;;;;5071404;28;20447;-70
2023/04/25 04:06:18;;;;;;;58.97;4.73;;;;;;;;;;5071790;28;20447;-70
2023/04/25 04:08:45;;;;;;;59.43;5.00;;;;;;;;;;5070743;28;20479;-70
2023/04/25 04:11:13;;;;;;;59.87;4.67;;;;;;;;;;5071539;28;20455;-70
2023/04/25 04:13:41;;;;;;;61.00;4.80;;;;;;;;;;5071262;28;20457;-70
2023/04/25 04:16:08;;;;;;;60.37;5.30;;;;;;;;;;5071242;28;20455;-69
2023/04/25 04:18:35;;;;;;;61.43;4.70;;;;;;;;;;5070801;28;20455;-70
2023/04/25 04:21:03;;;;;;;59.20;5.03;;;;;;;;;;5071249;28;20450;-69
2023/04/25 04:23:30;;;;;;;61.40;5.10;;;;;;;;;;5071115;28;20459;-70
2023/04/25 04:25:57;;;;;;;61.27;5.43;;;;;;;;;;5071277;28;20546;-69
2023/04/25 04:28:25;;;;;;;60.37;4.80;;;;;;;;;;5071033;28;20447;-70
2023/04/25 04:30:53;;;;;;;58.90;4.73;;;;;;;;;;5070808;28;20501;-70
2023/04/25 04:33:21;;;;;;;60.63;5.50;;;;;;;;;;5074371;28;20447;-69
2023/04/25 04:35:48;;;;;;;60.57;6.40;;;;;;;;;;5074322;28;20491;-70
2023/04/25 04:38:15;;;;;;;60.00;5.50;;;;;;;;;;5074789;28;20447;-69
2023/04/25 04:40:43;;;;;;;62.47;5.43;;;;;;;;;;5074326;28;20463;-70
2023/04/25 04:43:10;;;;;;;59.67;5.07;;;;;;;;;;5074471;28;20932;-70
2023/04/25 04:45:38;;;;;;;62.30;5.67;;;;;;;;;;5074573;28;20446;-70
2023/04/25 04:48:07;;;;;;;60.53;5.30;;;;;;;;;;5074177;28;20555;-70
2023/04/25 04:50:35;;;;;;;62.93;5.50;;;;;;;;;;5073889;28;20972;-70
2023/04/25 04:53:02;;;;;;;60.70;5.90;;;;;;;;;;5074186;28;20986;-69
2023/04/25 04:55:29;;;;;;;61.93;6.40;;;;;;;;;;5074380;28;20664;-70
2023/04/25 04:57:56;;;;;;;60.67;5.60;;;;;;;;;;5074519;28;20447;-70
2023/04/25 05:00:23;;;;;;;60.37;5.10;;;;;;;;;;5073794;28;20474;-70
2023/04/25 05:02:50;;;;;;;60.10;5.70;;;;;;;;;;5073974;28;20451;-70
2023/04/25 05:05:19;;;;;;;61.27;5.90;;;;;;;;;;5074130;28;20450;-69
2023/04/25 05:07:46;;;;;;;59.40;5.00;;;;;;;;;;5074008;28;20448;-70
2023/04/25 05:10:13;;;;;;;59.67;5.50;;;;;;;;;;5073584;28;20467;-70
2023/04/25 05:12:40;;;;;;;59.83;5.23;;;;;;;;;;5073906;28;20454;-70
2023/04/25 05:15:08;;;;;;;61.50;5.77;;;;;;;;;;5073831;28;20999;-70
2023/04/25 05:17:35;;;;;;;61.67;5.33;;;;;;;;;;5074001;28;20451;-71
2023/04/25 05:20:02;;;;;;;59.53;5.27;;;;;;;;;;5073652;28;20463;-70
2023/04/25 05:22:31;;;;;;;60.20;5.30;;;;;;;;;;5073812;28;20449;-70
2023/04/25 05:24:58;;;;;;;61.20;5.37;;;;;;;;;;5073802;28;20451;-71
2023/04/25 05:27:25;;;;;;;59.77;5.13;;;;;;;;;;5073704;28;20823;-70
2023/04/25 05:29:52;;;;;;;59.00;4.83;;;;;;;;;;5073012;28;20995;-70
2023/04/25 05:32:19;;;;;;;59.97;4.97;;;;;;;;;;5073687;28;20584;-70
2023/04/25 05:34:46;;;;;;;60.17;5.27;;;;;;;;;;5073109;28;20515;-69
2023/04/25 05:37:13;;;;;;;60.13;5.40;;;;;;;;;;5073411;28;20443;-70
2023/04/25 05:39:42;;;;;;;62.97;6.17;;;;;;;;;;5072913;28;20471;-70
2023/04/25 05:42:09;;;;;;;60.47;5.70;;;;;;;;;;5073161;28;20457;-70
2023/04/25 05:44:37;;;;;;;60.90;5.67;;;;;;;;;;5072821;28;20538;-69
2023/04/25 05:47:04;;;;;;;72.20;5.63;;;;;;;;;;5073449;28;20447;-70
2023/04/25 05:49:31;;;;;;;60.87;5.60;;;;;;;;;;5072929;28;20467;-70
2023/04/25 05:51:59;;;;;;;59.80;5.90;;;;;;;;;;5073609;28;20444;-70
2023/04/25 05:54:26;;;;;;;60.40;4.90;;;;;;;;;;5072947;28;20456;-70
2023/04/25 05:56:54;;;;;;;60.70;5.57;;;;;;;;;;5073127;28;20444;-70
2023/04/25 05:59:21;;;;;;;59.77;5.23;;;;;;;;;;5072548;28;20467;-69
2023/04/25 06:01:48;;;;;;;60.37;5.60;;;;;;;;;;5073085;28;20906;-70
2023/04/25 06:04:15;;;;;;;59.70;5.40;;;;;;;;;;5072889;28;20449;-69
2023/04/25 06:06:42;;;;;;;60.47;6.13;;;;;;;;;;5072798;28;20969;-71
2023/04/25 06:09:10;;;;;;;61.57;6.40;;;;;;;;;;5072173;28;20475;-69
2023/04/25 06:11:37;;;;;;;60.17;5.90;;;;;;;;;;5072272;28;20478;-70
2023/04/25 06:14:05;;;;;;;60.77;5.97;;;;;;;;;;5072318;28;20944;-70
2023/04/25 06:16:32;;;;;;;62.90;6.30;;;;;;;;;;5072644;28;20491;-70
2023/04/25 06:18:59;;;;;;;59.77;5.30;;;;;;;;;;5072120;28;21019;-71
2023/04/25 06:21:27;;;;;;;61.00;7.00;;;;;;;;;;5072598;28;20448;-70
2023/04/25 06:23:54;;;;;;;60.20;5.87;;;;;;;;;;5072247;28;20463;-70
2023/04/25 06:26:21;;;;;;;60.87;6.07;;;;;;;;;;5072432;28;20447;-71
2023/04/25 06:28:48;;;;;;;59.97;6.30;;;;;;;;;;5072162;28;20469;-70
2023/04/25 06:31:16;;;;;;;60.57;5.90;;;;;;;;;;5072480;28;20447;-70
2023/04/25 06:33:44;;;;;;;60.37;5.63;;;;;;;;;;5072328;28;20836;-70
2023/04/25 06:36:11;;;;;;;61.20;5.90;;;;;;;;;;5072175;28;20489;-70
2023/04/25 06:38:38;;;;;;;59.40;5.23;;;;;;;;;;5071815;28;20819;-70
2023/04/25 06:41:05;;;;;;;60.10;5.33;;;;;;;;;;5072386;28;20447;-69
2023/04/25 06:43:33;;;;;;;60.50;5.70;;;;;;;;;;5072216;28;20512;-70
2023/04/25 06:46:00;;;;;;;63.73;5.70;;;;;;;;;;5072189;28;20517;-70
2023/04/25 06:48:29;;;;;;;61.67;5.87;;;;;;;;;;5071750;28;20451;-68
2023/04/25 06:50:56;;;;;;;60.37;6.10;;;;;;;;;;5071869;28;20970;-69
2023/04/25 06:53:23;;;;;;;60.50;5.37;;;;;;;;;;5072448;28;20534;-69
2023/04/25 06:55:50;;;;;;;60.17;5.37;;;;;;;;;;5071855;28;20514;-69
2023/04/25 06:58:18;;;;;;;60.43;5.70;;;;;;;;;;5071981;28;20451;-69
2023/04/25 07:00:46;;;;;;;60.70;5.73;;;;;;;;;;5071674;28;20485;-70
2023/04/25 07:03:13;;;;;;;60.47;5.70;;;;;;;;;;5072053;28;20458;-68
2023/04/25 07:05:41;;;;;;;59.87;5.10;;;;;;;;;;5071715;28;20439;-69
2023/04/25 07:08:08;;;;;;;59.87;5.23;;;;;;;;;;5052790;28;20459;-69
2023/04/25 07:10:35;;;;;;;60.57;5.17;;;;;;;;;;5051207;28;20475;-69
2023/04/25 07:13:02;;;;;;;59.47;5.60;;;;;;;;;;5051810;28;20444;-70
2023/04/25 07:15:30;;;;;;;60.00;5.57;;;;;;;;;;5051864;28;20852;-68
2023/04/25 07:17:57;;;;;;;60.70;5.63;;;;;;;;;;5051437;28;20448;-69
2023/04/25 07:20:24;;;;;;;59.97;5.13;;;;;;;;;;5051130;28;20472;-69
2023/04/25 07:22:52;;;;;;;58.90;4.80;;;;;;;;;;5051706;28;20445;-69
2023/04/25 07:25:20;;;;;;;59.47;5.27;;;;;;;;;;5051739;28;20812;-69
2023/04/25 07:27:47;;;;;;;59.77;5.77;;;;;;;;;;5051467;28;20440;-69
2023/04/25 07:30:14;;;;;;;59.57;5.20;;;;;;;;;;5051048;28;20551;-69
2023/04/25 07:32:41;;;;;;;60.90;5.53;;;;;;;;;;5051297;28;20531;-69
2023/04/25 07:35:09;;;;;;;60.77;5.20;;;;;;;;;;5051196;28;20483;-69
2023/04/25 07:37:36;;;;;;;60.17;4.87;;;;;;;;;;5051630;28;20542;-68
2023/04/25 07:40:05;;;;;;;60.40;5.17;;;;;;;;;;5051085;28;20471;-69
2023/04/25 07:42:32;;;;;;;61.00;5.10;;;;;;;;;;5051379;28;20448;-69
2023/04/25 07:44:59;;;;;;;63.20;5.27;;;;;;;;;;5051472;28;20450;-70
2023/04/25 07:47:26;;;;;;;59.70;5.40;;;;;;;;;;5051191;28;20448;-70
2023/04/25 07:49:54;;;;;;;59.60;5.50;;;;;;;;;;5050830;28;20479;-69
2023/04/25 07:52:21;;;;;;;62.60;6.50;;;;;;;;;;5051326;28;20474;-70
2023/04/25 07:54:48;;;;;;;59.67;5.47;;;;;;;;;;5051237;28;20828;-70
2023/04/25 07:57:18;;;;;;;60.70;5.87;;;;;;;;;;5051314;28;20448;-69
2023/04/25 07:59:45;;;;;;;59.67;5.13;;;;;;;;;;5050673;28;20472;-69
2023/04/25 08:02:12;;;;;;;61.10;5.83;;;;;;;;;;5051223;28;20456;-69
2023/04/25 08:04:39;;;;;;;63.00;5.80;;;;;;;;;;5051338;28;20452;-69
2023/04/25 08:07:06;;;;;;;59.57;5.87;;;;;;;;;;5052973;28;20441;-69
2023/04/25 08:09:35;;;;;;;60.07;5.37;;;;;;;;;;5054422;28;20980;-69
2023/04/25 08:12:02;;;;;;;60.57;6.30;;;;;;;;;;5054844;28;20488;-69
2023/04/25 08:14:35;;;;;;;60.87;6.40;;;;;;;;;;5054774;28;20452;-70
2023/04/25 08:17:03;;;;;;;60.47;6.80;;;;;;;;;;5055050;28;20483;-68
2023/04/25 08:19:30;;;;;;;61.83;7.37;;;;;;;;;;5054516;28;20559;-68
2023/04/25 08:21:57;;;;;;;63.07;6.97;;;;;;;;;;5054920;28;20464;-69
2023/04/25 08:24:24;;;;;;;63.47;8.60;;;;;;;;;;5054751;28;20464;-69
2023/04/25 08:26:51;;;;;;;63.17;8.00;;;;;;;;;;5054562;28;20975;-68
2023/04/25 08:29:18;;;;;;;61.30;7.43;;;;;;;;;;5054417;28;20478;-69
2023/04/25 08:31:47;;;;;;;63.70;8.47;;;;;;;;;;5054752;28;20892;-69
2023/04/25 08:34:15;;;;;;;62.27;8.13;;;;;;;;;;5054722;28;20448;-69
2023/04/25 08:36:42;;;;;;;62.00;7.30;;;;;;;;;;5054296;28;20492;-68
2023/04/25 08:39:09;;;;;;;63.17;8.00;;;;;;;;;;5054099;28;20468;-69
2023/04/25 08:41:38;;;;;;;62.23;7.97;;;;;;;;;;5054420;28;20440;-68
2023/04/25 08:44:05;;;;;;;62.77;8.33;;;;;;;;;;5054361;28;20551;-69
2023/04/25 08:46:32;;;;;;;62.27;8.10;;;;;;;;;;5054709;28;20450;-68
2023/04/25 08:49:02;;;;;;;66.07;8.30;;;;;;;;;;5053849;28;20517;-69
2023/04/25 08:51:32;;;;;;;61.77;7.63;;;;;;;;;;5054116;28;20488;-69
2023/04/25 08:54:03;;;;;;;63.87;8.27;;;;;;;;;;5054140;28;20971;-69
2023/04/25 08:56:30;;;;;;;63.67;9.27;;;;;;;;;;5054284;28;20488;-69
2023/04/25 08:58:58;;;;;;;63.30;8.67;;;;;;;;;;5053788;28;20468;-69
2023/04/25 09:01:25;;;;;;;62.17;8.17;;;;;;;;;;5054089;28;20491;-69
2023/04/25 09:03:52;;;;;;;64.30;8.80;;;;;;;;;;5054185;28;20977;-69
2023/04/25 09:06:21;;;;;;;61.90;8.40;;;;;;;;;;5053846;28;20444;-69
2023/04/25 09:08:48;;;;;;;63.50;8.67;;;;;;;;;;5053688;28;20470;-69
2023/04/25 09:11:15;;;;;;;65.90;9.30;;;;;;;;;;5054044;28;20460;-69
2023/04/25 09:13:42;;;;;;;65.50;10.40;;;;;;;;;;5053976;28;21132;-69
2023/04/25 09:16:09;;;;;;;64.63;9.40;;;;;;;;;;5053757;28;20484;-69
2023/04/25 09:18:37;;;;;;;66.80;9.20;;;;;;;;;;5052986;28;20443;-68
2023/04/25 09:21:07;;;;;;;62.60;9.00;;;;;;;;;;5053547;28;20452;-68
2023/04/25 09:23:42;;;;;;;63.30;8.80;;;;;;;;;;5053492;28;20475;-69
2023/04/25 09:26:09;;;;;;;65.70;8.10;;;;;;;;;;5053737;28;20447;-69
2023/04/25 09:28:37;;;;;;;64.20;8.67;;;;;;;;;;5053438;28;20817;-69
2023/04/25 09:31:05;;;;;;;66.07;9.23;;;;;;;;;;5053657;28;20448;-69
2023/04/25 09:33:33;;;;;;;62.97;8.50;;;;;;;;;;5053483;28;20892;-68
2023/04/25 09:36:04;;;;;;;62.97;8.43;;;;;;;;;;5053587;28;20563;-69
2023/04/25 09:38:32;;;;;;;64.07;7.77;;;;;;;;;;5053317;28;20452;-68
2023/04/25 09:41:01;;;;;;;60.87;7.30;;;;;;;;;;5053681;28;20501;-68
2023/04/25 09:43:29;;;;;;;62.20;7.60;;;;;;;;;;5053252;28;20456;-68
2023/04/25 09:45:59;;;;;;;62.00;7.07;;;;;;;;;;5053191;28;20453;-68
2023/04/25 09:48:27;;;;;;;60.40;6.50;;;;;;;;;;5053627;28;20452;-68
2023/04/25 09:51:07;;;;;;;61.37;5.77;;;;;;;;;;5053331;28;20470;-68
2023/04/25 09:53:35;;;;;;;61.30;6.80;;;;;;;;;;5053400;28;20448;-68
2023/04/25 09:56:05;;;;;;;61.97;7.20;;;;;;;;;;5053086;28;20551;-68
2023/04/25 09:58:32;;;;;;;62.43;7.90;;;;;;;;;;5052914;28;20794;-68
2023/04/25 10:01:01;;;;;;;61.67;7.23;;;;;;;;;;5052921;28;20452;-68
2023/04/25 10:03:28;;;;;;;62.80;8.10;;;;;;;;;;5053045;28;20448;-68
2023/04/25 10:05:56;;;;;;;63.37;8.60;;;;;;;;;;5053010;28;20440;-68
2023/04/25 10:08:24;;;;;;;64.30;8.70;;;;;;;;;;5052797;28;20452;-68
2023/04/25 10:10:51;;;;;;;66.13;9.00;;;;;;;;;;5052621;28;20468;-68
2023/04/25 10:13:20;;;;;;;63.87;8.23;;;;;;;;;;5052679;28;20448;-68
2023/04/25 10:15:48;;;;;;;65.17;9.17;;;;;;;;;;5052576;28;20455;-68
2023/04/25 10:18:18;;;;;;;62.13;8.50;;;;;;;;;;5052959;28;20836;-68
2023/04/25 10:20:45;;;;;;;60.90;6.47;;;;;;;;;;5051918;28;20857;-68
2023/04/25 10:23:14;;;;;;;61.67;6.50;;;;;;;;;;5052538;28;20456;-69
2023/04/25 10:25:42;;;;;;;60.80;5.83;;;;;;;;;;5052776;28;20452;-69
2023/04/25 10:28:09;;;;;;;62.67;6.00;;;;;;;;;;5052545;28;20448;-69
2023/04/25 10:30:37;;;;;;;62.00;6.53;;;;;;;;;;5051509;28;20836;-69
2023/04/25 10:33:17;;;;;;;60.97;6.70;;;;;;;;;;5051972;28;20449;-68
2023/04/25 10:35:46;;;;;;;61.50;6.40;;;;;;;;;;5052116;28;20828;-69
2023/04/25 10:38:15;;;;;;;64.10;7.07;;;;;;;;;;5052017;28;20452;-69
2023/04/25 10:40:42;;;;;;;60.97;6.63;;;;;;;;;;5051817;28;20474;-69
2023/04/25 10:43:28;;;;;;;61.58;7.00;;;;;;;;;;5052386;28;20463;-69
2023/04/25 10:45:57;;;;;;;62.83;7.50;;;;;;;;;;5050908;28;20746;-69
2023/04/25 10:48:26;;;;;;;62.95;7.45;;;;;;;;;;5051666;28;20452;-69
2023/04/25 10:51:08;;;;;;;62.10;7.23;;;;;;;;;;5050746;28;20217;-68
2023/04/25 10:53:35;;;;;;;62.63;7.72;;;;;;;;;;5051606;28;20937;-69
2023/04/25 10:56:02;;;;;;;63.00;7.77;;;;;;;;;;5051972;28;20605;-68
2023/04/25 10:58:29;;;;;;;62.10;7.47;;;;;;;;;;5051489;28;20452;-69
2023/04/25 11:00:58;;;;;;;61.57;6.97;;;;;;;;;;5051649;28;20832;-69
2023/04/25 11:03:25;;;;;;;63.43;7.90;;;;;;;;;;5051829;28;20448;-69
2023/04/25 11:05:54;;;;;;;63.07;7.47;;;;;;;;;;5051702;28;20449;-69
2023/04/25 11:08:27;;;;;;;61.30;7.23;;;;;;;;;;5051825;28;20953;-69
2023/04/25 11:10:54;;;;;;;61.43;6.67;;;;;;;;;;5051753;28;20448;-69
2023/04/25 11:13:21;;;;;;;62.30;7.97;;;;;;;;;;5051690;28;20806;-69
2023/04/25 11:15:52;;;;;;;61.90;7.30;;;;;;;;;;5051917;28;20447;-69
2023/04/25 11:18:21;;;;;;;62.07;7.50;;;;;;;;;;5051795;28;20448;-69
2023/04/25 11:20:49;;;;;;;61.60;6.53;;;;;;;;;;5051459;28;20538;-68
2023/04/25 11:23:17;;;;;;;61.47;6.67;;;;;;;;;;5051607;28;20468;-69
2023/04/25 11:25:44;;;;;;;62.33;6.80;;;;;;;;;;5051778;28;20472;-69
2023/04/25 11:28:11;;;;;;;61.20;6.80;;;;;;;;;;5051476;28;20455;-69
2023/04/25 11:30:38;;;;;;;61.30;6.90;;;;;;;;;;5051534;28;20853;-69
2023/04/25 11:33:05;;;;;;;61.43;6.60;;;;;;;;;;5051777;28;20448;-69
2023/04/25 11:35:34;;;;;;;61.17;6.93;;;;;;;;;;5051526;28;20448;-69
2023/04/25 11:38:01;;;;;;;60.40;6.43;;;;;;;;;;5051475;28;20488;-69
2023/04/25 11:40:28;;;;;;;60.10;6.20;;;;;;;;;;5052038;28;20852;-69
2023/04/25 11:42:55;;;;;;;60.20;6.17;;;;;;;;;;5055942;28;20452;-69
2023/04/25 11:45:24;;;;;;;59.97;5.43;;;;;;;;;;5055761;28;20466;-70
2023/04/25 11:47:51;;;;;;;61.70;6.80;;;;;;;;;;5055635;28;20455;-69
2023/04/25 11:50:18;;;;;;;60.50;4.97;;;;;;;;;;5055155;28;20809;-69
2023/04/25 11:52:48;;;;;;;60.90;6.57;;;;;;;;;;5055669;28;20454;-69
2023/04/25 11:55:15;;;;;;;60.30;5.63;;;;;;;;;;5055195;28;20451;-68
2023/04/25 11:57:43;;;;;;;60.30;5.70;;;;;;;;;;5055386;28;20484;-69
2023/04/25 12:00:12;;;;;;;59.80;5.70;;;;;;;;;;5055040;28;20471;-70
2023/04/25 12:02:42;;;;;;;59.20;5.10;;;;;;;;;;5055202;28;20458;-69
2023/04/25 12:05:09;;;;;;;60.30;4.40;;;;;;;;;;5055235;28;20526;-69
2023/04/25 12:07:37;;;;;;;59.97;4.53;;;;;;;;;;5055379;28;20440;-69
2023/04/25 12:10:10;;;;;;;59.60;5.07;;;;;;;;;;5054723;28;20472;-69
2023/04/25 12:12:37;;;;;;;62.03;6.07;;;;;;;;;;5055207;28;20505;-69
2023/04/25 12:15:11;;;;;;;59.20;5.10;;;;;;;;;;5055172;28;20452;-68
2023/04/25 12:17:38;;;;;;;59.43;5.40;;;;;;;;;;5055055;28;20552;-69
2023/04/25 12:20:09;;;;;;;60.63;6.27;;;;;;;;;;5054688;28;20794;-69
2023/04/25 12:22:37;;;;;;;60.27;6.20;;;;;;;;;;5054810;28;20488;-69
2023/04/25 12:25:04;;;;;;;61.03;5.27;;;;;;;;;;5054983;28;20525;-68
2023/04/25 12:27:33;;;;;;;60.23;5.80;;;;;;;;;;5055091;28;20471;-68
2023/04/25 12:30:01;;;;;;;59.63;5.27;;;;;;;;;;5054385;28;20916;-68
2023/04/25 12:32:28;;;;;;;60.80;6.40;;;;;;;;;;5054697;28;20459;-68
2023/04/25 12:34:55;;;;;;;60.63;6.00;;;;;;;;;;5054623;28;20460;-69
2023/04/25 12:37:22;;;;;;;59.37;5.27;;;;;;;;;;5055113;28;20490;-68
2023/04/25 12:39:50;;;;;;;61.40;5.97;;;;;;;;;;5054285;28;20471;-69
2023/04/25 12:42:17;;;;;;;59.87;5.83;;;;;;;;;;5054470;28;20950;-69
2023/04/25 12:44:46;;;;;;;62.07;6.50;;;;;;;;;;5054615;28;20466;-69
2023/04/25 12:47:13;;;;;;;60.60;6.70;;;;;;;;;;5054360;28;20518;-69
2023/04/25 12:49:40;;;;;;;61.30;6.70;;;;;;;;;;5054335;28;20464;-68
2023/04/25 12:52:07;;;;;;;62.23;7.07;;;;;;;;;;5053926;28;20448;-69
2023/04/25 12:54:35;;;;;;;62.00;7.10;;;;;;;;;;5054451;28;20452;-69
2023/04/25 12:57:02;;;;;;;62.70;6.43;;;;;;;;;;5054268;28;20484;-68
2023/04/25 12:59:29;;;;;;;61.87;6.63;;;;;;;;;;5053864;28;20476;-68
2023/04/25 13:01:58;;;;;;;64.47;8.20;;;;;;;;;;5054096;28;20454;-68
2023/04/25 13:04:25;;;;;;;62.67;6.77;;;;;;;;;;5054283;28;20457;-69
2023/04/25 13:06:52;;;;;;;59.97;6.17;;;;;;;;;;5054224;28;20480;-70
2023/04/25 13:09:20;;;;;;;60.03;6.10;;;;;;;;;;5053762;28;20464;-69
2023/04/25 13:11:47;;;;;;;60.30;6.20;;;;;;;;;;5053915;28;20944;-69
2023/04/25 13:14:15;;;;;;;60.97;6.57;;;;;;;;;;5054080;28;20444;-69
2023/04/25 13:16:42;;;;;;;61.73;6.90;;;;;;;;;;5053724;28;20460;-69
2023/04/25 13:19:11;;;;;;;61.13;6.73;;;;;;;;;;5053552;28;20479;-70
2023/04/25 13:21:38;;;;;;;63.47;6.97;;;;;;;;;;5053835;28;20551;-70
2023/04/25 13:24:06;;;;;;;62.20;6.87;;;;;;;;;;5053678;28;20470;-69
2023/04/25 13:26:33;;;;;;;61.40;6.80;;;;;;;;;;5053732;28;20448;-70
2023/04/25 13:29:02;;;;;;;61.67;5.97;;;;;;;;;;5053112;28;20981;-69
2023/04/25 13:31:29;;;;;;;61.67;6.90;;;;;;;;;;5053971;28;20488;-70
2023/04/25 13:33:56;;;;;;;60.80;6.17;;;;;;;;;;5053675;28;20462;-70
2023/04/25 13:36:25;;;;;;;62.00;7.10;;;;;;;;;;5053541;28;20444;-70
2023/04/25 13:38:52;;;;;;;61.30;7.40;;;;;;;;;;5052977;28;20556;-70
2023/04/25 13:41:20;;;;;;;63.20;7.20;;;;;;;;;;5053369;28;20821;-69
2023/04/25 13:43:48;;;;;;;67.20;7.60;;;;;;;;;;5053414;28;20455;-70
2023/04/25 13:46:16;;;;;;;62.27;6.93;;;;;;;;;;5053546;28;20498;-70
2023/04/25 13:48:46;;;;;;;62.30;6.60;;;;;;;;;;5052783;28;20453;-71
2023/04/25 13:51:14;;;;;;;63.30;6.90;;;;;;;;;;5053170;28;20960;-71
2023/04/25 13:53:42;;;;;;;63.77;7.40;;;;;;;;;;5053248;28;20459;-70
2023/04/25 13:56:10;;;;;;;66.10;8.30;;;;;;;;;;5053090;28;20444;-70
2023/04/25 13:58:37;;;;;;;64.20;8.63;;;;;;;;;;5052556;28;21087;-70
2023/04/25 14:01:05;;;;;;;63.50;8.63;;;;;;;;;;5053206;28;20459;-70
2023/04/25 14:03:32;;;;;;;62.77;8.40;;;;;;;;;;5052604;28;20444;-70
2023/04/25 14:05:59;;;;;;;62.70;8.93;;;;;;;;;;5052624;28;20804;-70
2023/04/25 14:08:26;;;;;;;63.20;8.47;;;;;;;;;;5052959;28;20444;-71
2023/04/25 14:10:54;;;;;;;65.53;8.80;;;;;;;;;;5052467;28;20992;-71
2023/04/25 14:13:23;;;;;;;62.33;8.10;;;;;;;;;;5052925;28;20452;-71
2023/04/25 14:15:51;;;;;;;63.80;9.03;;;;;;;;;;5052890;28;20828;-71
2023/04/25 14:18:18;;;;;;;62.30;7.90;;;;;;;;;;5052672;28;20518;-71
2023/04/25 14:20:45;;;;;;;63.53;8.33;;;;;;;;;;5052300;28;20463;-71
2023/04/25 14:23:13;;;;;;;64.60;8.63;;;;;;;;;;5052403;28;20466;-70
2023/04/25 14:25:48;;;;;;;63.00;9.10;;;;;;;;;;5089528;28;20509;-69
2023/04/25 14:28:15;;;;;;;62.33;8.50;;;;;;;;;;5089394;28;20453;-69
2023/04/25 14:30:42;;;;;;;62.07;7.83;;;;;;;;;;5088929;28;20469;-69
2023/04/25 14:33:10;;;;;;;63.90;8.03;;;;;;;;;;5089292;28;20439;-69